Time;durP1;ratioP1;P1;durP2;ratioP2;P2;SDS_P1;SDS_P2;PMS_P1;PMS_P2;Temp;Humidity;BMP_temperature;BMP_pressure;BME280_temperature;BME280_humidity;BME280_pressure;Samples;Min_cycle;Max_cycle;Signal;HPM_P1;HPM_P2
2021/09/20 00:02:38;;;;;;;0.85;0.50;;;;;;;10.86;100.00;96684.50;5016703;28;20510;-63
2021/09/20 00:05:24;;;;;;;0.40;0.40;;;;;;;10.83;100.00;96693.44;5010917;28;20143;-63
2021/09/20 00:08:09;;;;;;;0.50;0.50;;;;;;;10.95;100.00;96687.75;5004126;28;20037;-61
2021/09/20 00:10:55;;;;;;;0.47;0.40;;;;;;;11.01;100.00;96686.25;5001518;28;20054;-60
2021/09/20 00:13:41;;;;;;;0.82;0.70;;;;;;;11.05;100.00;96683.56;4994499;28;20104;-64
2021/09/20 00:16:27;;;;;;;1.40;0.47;;;;;;;10.92;100.00;96690.44;5000116;28;20057;-61
2021/09/20 00:19:13;;;;;;;0.47;0.40;;;;;;;10.90;100.00;96691.59;4997537;28;20037;-61
2021/09/20 00:21:58;;;;;;;0.40;0.40;;;;;;;10.93;100.00;96695.56;5007012;28;20033;-61
2021/09/20 00:24:44;;;;;;;0.50;0.50;;;;;;;10.93;100.00;96689.25;4994446;28;20037;-64
2021/09/20 00:27:31;;;;;;;3.42;0.55;;;;;;;10.90;100.00;96691.59;4994515;28;20045;-63
2021/09/20 00:30:17;;;;;;;2.58;0.57;;;;;;;10.89;100.00;96689.22;5001919;28;20405;-63
2021/09/20 00:33:02;;;;;;;0.88;0.47;;;;;;;11.01;100.00;96694.47;5011666;28;20072;-65
2021/09/20 00:35:48;;;;;;;13.48;7.35;;;;;;;11.09;100.00;96687.16;5012410;28;20057;-63
2021/09/20 00:38:34;;;;;;;1.38;0.80;;;;;;;11.09;100.00;96689.88;5015705;28;20103;-62
2021/09/20 00:41:19;;;;;;;0.40;0.40;;;;;;;11.07;100.00;96698.50;4971851;28;20053;-59
2021/09/20 00:44:05;;;;;;;2.00;0.40;;;;;;;11.08;100.00;96699.28;4976900;28;20096;-60
2021/09/20 00:46:51;;;;;;;0.40;0.40;;;;;;;11.04;100.00;96691.00;4996663;28;20069;-62
2021/09/20 00:49:36;;;;;;;0.40;0.40;;;;;;;11.06;100.00;96693.38;5008408;28;20133;-63
2021/09/20 00:52:22;;;;;;;2.28;0.40;;;;;;;11.03;100.00;96689.41;5008719;28;20053;-62
2021/09/20 00:55:08;;;;;;;1.90;0.40;;;;;;;10.99;100.00;96685.84;5009129;28;20045;-61
2021/09/20 00:57:55;;;;;;;0.30;0.30;;;;;;;10.95;100.00;96690.50;5014798;28;20112;-60
2021/09/20 01:00:41;;;;;;;0.35;0.35;;;;;;;10.95;100.00;96681.47;5014970;28;20554;-64
2021/09/20 01:03:27;;;;;;;1.20;0.40;;;;;;;10.97;100.00;96687.38;4999720;28;20702;-60
2021/09/20 01:06:12;;;;;;;0.30;0.30;;;;;;;11.05;100.00;96686.31;4992925;28;20053;-63
2021/09/20 01:08:58;;;;;;;0.38;0.30;;;;;;;11.14;100.00;96694.28;5006420;28;20484;-59
2021/09/20 01:11:44;;;;;;;0.40;0.40;;;;;;;11.19;100.00;96696.69;5001508;28;20049;-64
2021/09/20 01:14:29;;;;;;;1.73;0.30;;;;;;;11.18;100.00;96689.63;5013725;28;20037;-64
2021/09/20 01:17:15;;;;;;;0.75;0.30;;;;;;;11.28;100.00;96694.47;4996348;28;20044;-63
2021/09/20 01:20:03;;;;;;;0.93;0.70;;;;;;;11.37;100.00;96705.94;5014703;28;20049;-63
2021/09/20 01:22:56;;;;;;;0.30;0.30;;;;;;;11.54;100.00;96701.88;5004084;28;20041;-63
2021/09/20 01:25:42;;;;;;;0.30;0.30;;;;;;;11.63;100.00;96699.63;5009874;28;20048;-63
2021/09/20 01:28:28;;;;;;;0.70;0.40;;;;;;;11.66;100.00;96698.88;5005623;28;20080;-62
2021/09/20 01:31:14;;;;;;;1.45;0.30;;;;;;;11.66;100.00;96703.56;5008390;28;20046;-63
2021/09/20 01:33:59;;;;;;;0.30;0.30;;;;;;;11.61;100.00;96696.47;4999411;28;20057;-62
2021/09/20 01:36:46;;;;;;;0.82;0.40;;;;;;;11.64;100.00;96703.16;4996269;28;20053;-62
2021/09/20 01:39:34;;;;;;;0.55;0.55;;;;;;;11.55;100.00;96695.22;4984256;28;20041;-64
2021/09/20 01:42:20;;;;;;;0.28;0.28;;;;;;;11.50;100.00;96702.97;4997217;28;20041;-63
2021/09/20 01:45:06;;;;;;;0.30;0.30;;;;;;;11.44;100.00;96695.06;5005168;28;20038;-64
2021/09/20 01:47:53;;;;;;;0.68;0.40;;;;;;;11.50;100.00;96700.22;5009572;28;20498;-64
2021/09/20 01:50:40;;;;;;;0.30;0.30;;;;;;;11.63;100.00;96704.31;5013517;28;20042;-64
2021/09/20 01:53:25;;;;;;;0.38;0.38;;;;;;;11.70;100.00;96693.41;5008727;28;20041;-64
2021/09/20 01:56:11;;;;;;;0.63;0.40;;;;;;;11.70;100.00;96700.88;5007147;28;20870;-64
2021/09/20 01:58:57;;;;;;;0.40;0.35;;;;;;;11.69;100.00;96700.09;4999402;28;20084;-62
2021/09/20 02:01:43;;;;;;;0.40;0.40;;;;;;;11.73;100.00;96692.69;5000039;28;20045;-63
2021/09/20 02:04:28;;;;;;;0.50;0.50;;;;;;;11.68;100.00;96703.97;5010047;28;20132;-64
2021/09/20 02:07:14;;;;;;;0.30;0.30;;;;;;;11.63;100.00;96699.63;5007735;28;20045;-63
2021/09/20 02:10:00;;;;;;;0.85;0.57;;;;;;;11.54;100.00;96693.66;5008486;28;20521;-62
2021/09/20 02:12:46;;;;;;;3.08;0.30;;;;;;;11.54;100.00;96693.66;4999874;28;20071;-62
2021/09/20 02:15:32;;;;;;;1.15;0.43;;;;;;;11.59;100.00;96696.03;5001837;28;20049;-63
2021/09/20 02:18:18;;;;;;;0.70;0.50;;;;;;;11.62;100.00;96692.56;4984920;28;20136;-64
2021/09/20 02:21:03;;;;;;;0.75;0.60;;;;;;;11.65;100.00;96691.03;4998005;28;20045;-60
2021/09/20 02:23:49;;;;;;;1.67;0.55;;;;;;;11.62;100.00;96692.56;5013966;28;20063;-63
2021/09/20 02:26:35;;;;;;;0.73;0.60;;;;;;;11.67;100.00;96688.69;5013212;28;20119;-63
2021/09/20 02:29:21;;;;;;;0.50;0.50;;;;;;;11.64;100.00;96695.72;5013339;28;20434;-63
2021/09/20 02:32:07;;;;;;;0.60;0.50;;;;;;;11.65;100.00;96689.06;4970457;28;20054;-63
2021/09/20 02:34:52;;;;;;;0.82;0.68;;;;;;;11.71;100.00;96688.75;4988098;28;20386;-63
2021/09/20 02:37:39;;;;;;;0.90;0.70;;;;;;;11.80;100.00;96692.75;5014996;28;20053;-62
2021/09/20 02:40:25;;;;;;;1.02;0.80;;;;;;;11.74;100.00;96687.97;5000836;28;20049;-63
2021/09/20 02:43:11;;;;;;;0.80;0.73;;;;;;;11.78;100.00;96689.59;4992295;28;20703;-64
2021/09/20 02:45:57;;;;;;;1.77;0.55;;;;;;;11.71;100.00;96689.53;5021574;28;20050;-63
2021/09/20 02:48:43;;;;;;;0.77;0.60;;;;;;;11.59;100.00;96687.03;5013562;28;20116;-63
2021/09/20 02:51:29;;;;;;;3.10;0.60;;;;;;;11.38;100.00;96685.59;5001858;28;20297;-63
2021/09/20 02:54:14;;;;;;;1.48;0.70;;;;;;;11.44;100.00;96689.59;5002963;28;20487;-64
2021/09/20 02:57:00;;;;;;;1.63;0.90;;;;;;;11.44;100.00;96691.53;4995913;28;20068;-63
2021/09/20 02:59:46;;;;;;;1.65;0.60;;;;;;;11.54;100.00;96688.16;5010013;28;20390;-62
2021/09/20 03:02:31;;;;;;;1.23;0.63;;;;;;;11.57;100.00;96692.88;5005008;28;20073;-63
2021/09/20 03:05:17;;;;;;;0.80;0.68;;;;;;;11.66;100.00;96696.13;5000634;28;20126;-63
2021/09/20 03:08:05;;;;;;;1.92;0.80;;;;;;;11.77;100.00;96695.47;4979198;28;20188;-63
2021/09/20 03:10:50;;;;;;;1.05;0.68;;;;;;;11.84;100.00;96696.31;5010480;28;20042;-63
2021/09/20 03:13:36;;;;;;;0.65;0.63;;;;;;;11.64;100.00;96700.41;5004996;28;20144;-62
2021/09/20 03:16:22;;;;;;;3.00;1.13;;;;;;;11.40;100.00;96699.72;5029011;28;20290;-62
2021/09/20 03:19:07;;;;;;;1.10;0.90;;;;;;;11.35;100.00;96702.78;5013459;28;20454;-62
2021/09/20 03:21:53;;;;;;;1.50;1.10;;;;;;;11.23;100.00;96708.50;5008923;28;20045;-63
2021/09/20 03:24:39;;;;;;;2.83;1.80;;;;;;;10.95;100.00;96698.72;5002093;28;20111;-62
2021/09/20 03:27:25;;;;;;;12.60;3.50;;;;;;;11.01;100.00;96710.16;5007180;28;20045;-63
2021/09/20 03:30:12;;;;;;;1.73;1.23;;;;;;;10.95;100.00;96706.94;5012512;28;20038;-62
2021/09/20 03:32:58;;;;;;;1.80;1.30;;;;;;;10.95;100.00;96717.91;5005533;28;20052;-63
2021/09/20 03:35:44;;;;;;;1.58;1.15;;;;;;;10.93;100.00;96709.25;5007752;28;20037;-63
2021/09/20 03:38:29;;;;;;;2.20;1.35;;;;;;;10.92;100.00;96701.41;5003811;28;20049;-63
2021/09/20 03:41:15;;;;;;;2.15;1.20;;;;;;;10.87;100.00;96706.00;4998123;28;20749;-64
2021/09/20 03:44:01;;;;;;;1.63;1.20;;;;;;;10.90;100.00;96715.47;5006497;28;20045;-63
2021/09/20 03:46:47;;;;;;;1.58;1.20;;;;;;;10.98;100.00;96713.63;5003268;28;20452;-63
2021/09/20 03:49:33;;;;;;;1.83;1.20;;;;;;;10.93;100.00;96709.25;5001979;28;20067;-63
2021/09/20 03:52:18;;;;;;;1.73;1.30;;;;;;;10.83;100.00;96715.34;4997822;28;20391;-62
2021/09/20 03:55:04;;;;;;;1.73;1.25;;;;;;;10.85;100.00;96721.25;5003900;28;20054;-61
2021/09/20 03:57:50;;;;;;;2.17;1.50;;;;;;;10.89;100.00;96717.44;5014319;28;20037;-61
2021/09/20 04:00:36;;;;;;;1.35;1.00;;;;;;;10.89;100.00;96722.09;5006610;28;20699;-62
2021/09/20 04:03:22;;;;;;;1.75;1.25;;;;;;;10.88;100.00;96724.06;5003477;28;20132;-62
2021/09/20 04:06:07;;;;;;;2.45;1.65;;;;;;;10.84;100.00;96725.13;5010566;28;20044;-63
2021/09/20 04:08:55;;;;;;;2.47;1.77;;;;;;;10.86;100.00;96725.59;4980086;28;20049;-62
2021/09/20 04:11:40;;;;;;;2.83;1.70;;;;;;;10.86;100.00;96726.38;5012875;28;20042;-62
2021/09/20 04:14:26;;;;;;;2.63;1.75;;;;;;;10.86;100.00;96731.06;4998698;28;20651;-62
2021/09/20 04:17:12;;;;;;;4.80;1.90;;;;;;;10.89;100.00;96727.56;4975598;28;20687;-63
2021/09/20 04:19:58;;;;;;;2.80;1.90;;;;;;;10.88;100.00;96731.50;5052067;23;20136;-59
2021/09/20 04:22:43;;;;;;;2.50;1.50;;;;;;;10.88;100.00;96729.53;4998374;28;20119;-61
2021/09/20 04:25:29;;;;;;;3.03;1.70;;;;;;;11.12;100.00;96735.75;5001023;28;20095;-60
2021/09/20 04:28:15;;;;;;;2.63;1.90;;;;;;;11.23;100.00;96728.47;4959958;28;20137;-62
2021/09/20 04:31:01;;;;;;;2.30;1.60;;;;;;;11.18;100.00;96736.22;5006759;28;20639;-62
2021/09/20 04:33:47;;;;;;;1.83;1.50;;;;;;;11.13;100.00;96728.31;5000938;28;20041;-62
2021/09/20 04:36:33;;;;;;;4.07;1.70;;;;;;;11.18;100.00;96734.28;4999202;28;20519;-62
2021/09/20 04:39:18;;;;;;;5.55;1.40;;;;;;;11.26;100.00;96729.69;4998479;28;20052;-61
2021/09/20 04:42:04;;;;;;;3.35;1.40;;;;;;;11.26;100.00;96730.47;5010440;28;20145;-62
2021/09/20 04:44:50;;;;;;;2.08;1.38;;;;;;;11.28;100.00;96735.59;5003458;28;20089;-62
2021/09/20 04:47:37;;;;;;;2.22;1.17;;;;;;;11.31;100.00;96739.53;5000181;28;20049;-62
2021/09/20 04:50:23;;;;;;;2.15;1.50;;;;;;;11.37;100.00;96740.81;4999799;28;20053;-60
2021/09/20 04:53:10;;;;;;;2.78;1.65;;;;;;;11.35;100.00;96740.41;4995841;28;20038;-59
2021/09/20 04:55:55;;;;;;;5.30;2.00;;;;;;;11.16;100.00;96753.03;5007190;28;20510;-60
2021/09/20 04:58:41;;;;;;;3.08;1.88;;;;;;;11.12;100.00;96748.69;4976632;28;20133;-60
2021/09/20 05:01:27;;;;;;;2.83;2.17;;;;;;;11.06;100.00;96751.72;4977432;28;20045;-61
2021/09/20 05:04:14;;;;;;;2.80;2.00;;;;;;;11.08;100.00;96748.63;4988905;28;20578;-62
2021/09/20 05:07:00;;;;;;;2.70;2.03;;;;;;;11.08;100.00;96754.09;5004053;28;20678;-58
2021/09/20 05:09:45;;;;;;;2.53;1.75;;;;;;;11.19;100.00;96744.09;4994642;28;20180;-63
2021/09/20 05:12:31;;;;;;;2.38;1.75;;;;;;;11.26;100.00;96749.66;5000034;28;20936;-63
2021/09/20 05:15:17;;;;;;;2.10;1.60;;;;;;;11.41;100.00;96745.16;5003848;28;20037;-62
2021/09/20 05:18:03;;;;;;;3.42;1.60;;;;;;;11.54;100.00;96748.50;4998800;28;20406;-62
2021/09/20 05:20:48;;;;;;;2.55;1.80;;;;;;;11.50;100.00;96746.84;5006905;28;20494;-62
2021/09/20 05:23:34;;;;;;;3.53;1.65;;;;;;;11.48;100.00;96755.47;5003019;28;20056;-61
2021/09/20 05:26:20;;;;;;;2.63;1.58;;;;;;;11.54;100.00;96753.19;4992136;28;20110;-62
2021/09/20 05:29:06;;;;;;;2.72;1.80;;;;;;;11.59;100.00;96755.59;4978568;28;20619;-60
2021/09/20 05:31:52;;;;;;;2.72;1.60;;;;;;;11.74;100.00;96756.56;5004186;28;20582;-62
2021/09/20 05:34:37;;;;;;;2.15;1.35;;;;;;;11.98;100.00;96756.13;5001087;28;20079;-61
2021/09/20 05:37:23;;;;;;;2.47;1.58;;;;;;;12.13;100.00;96754.31;4992694;28;20857;-63
2021/09/20 05:40:09;;;;;;;3.20;1.60;;;;;;;12.15;100.00;96757.47;4993787;28;20045;-61
2021/09/20 05:42:59;;;;;;;2.00;1.50;;;;;;;12.24;100.00;96760.75;5002720;28;20045;-61
2021/09/20 05:45:45;;;;;;;1.85;1.48;;;;;;;12.20;100.00;96753.63;4997785;28;20095;-62
2021/09/20 05:48:30;;;;;;;2.53;1.77;;;;;;;11.96;100.00;96763.16;4997617;28;20387;-61
2021/09/20 05:51:16;;;;;;;2.88;1.75;;;;;;;12.00;100.00;96767.50;4998630;28;20375;-61
2021/09/20 05:54:02;;;;;;;2.78;1.60;;;;;;;12.01;100.00;96766.34;5010176;28;20037;-62
2021/09/20 05:56:48;;;;;;;4.28;1.52;;;;;;;11.77;100.00;96761.31;5002330;28;20157;-61
2021/09/20 05:59:33;;;;;;;3.45;1.40;;;;;;;11.75;100.00;96763.66;4994649;28;20053;-61
2021/09/20 06:02:19;;;;;;;3.03;1.98;;;;;;;11.69;100.00;96762.41;4991760;28;20049;-63
2021/09/20 06:05:06;;;;;;;2.30;1.70;;;;;;;11.78;100.00;96762.91;5000799;28;20045;-61
2021/09/20 06:07:52;;;;;;;2.63;2.03;;;;;;;11.92;100.00;96765.06;5001403;28;20081;-61
2021/09/20 06:10:38;;;;;;;2.75;2.10;;;;;;;12.10;100.00;96770.75;4999049;28;20041;-61
2021/09/20 06:13:24;;;;;;;3.47;2.58;;;;;;;12.19;100.00;96763.81;4994262;28;20449;-62
2021/09/20 06:16:10;;;;;;;3.88;2.40;;;;;;;12.23;100.00;96767.38;4989431;28;20592;-62
2021/09/20 06:18:55;;;;;;;4.78;2.83;;;;;;;11.94;100.00;96768.22;5004218;28;20073;-63
2021/09/20 06:21:41;;;;;;;5.25;3.28;;;;;;;11.85;100.00;96766.53;4998287;28;20042;-61
2021/09/20 06:24:27;;;;;;;5.65;3.40;;;;;;;11.88;100.00;96766.94;4980391;28;20061;-61
2021/09/20 06:27:12;;;;;;;4.57;3.60;;;;;;;12.00;100.00;96772.22;4992490;28;20068;-62
2021/09/20 06:29:58;;;;;;;3.63;2.53;;;;;;;12.03;100.00;96766.78;4992704;28;20045;-62
2021/09/20 06:32:45;;;;;;;3.50;2.72;;;;;;;12.13;100.00;96772.75;5001779;28;20152;-63
2021/09/20 06:35:31;;;;;;;3.67;2.65;;;;;;;12.18;100.00;96775.94;4985214;28;20568;-61
2021/09/20 06:38:17;;;;;;;7.25;3.03;;;;;;;12.30;100.00;96768.63;4997162;28;20124;-61
2021/09/20 06:41:02;;;;;;;3.05;2.22;;;;;;;12.26;100.00;96768.56;4994730;28;20056;-60
2021/09/20 06:43:48;;;;;;;3.90;2.55;;;;;;;12.28;100.00;96768.19;5005589;28;20072;-63
2021/09/20 06:46:37;;;;;;;4.53;2.63;;;;;;;12.29;100.00;96770.56;5004579;28;20851;-62
2021/09/20 06:49:23;;;;;;;4.45;2.90;;;;;;;12.34;100.00;96772.22;4999806;28;20148;-62
2021/09/20 06:52:08;;;;;;;3.53;2.70;;;;;;;12.21;100.00;96768.94;4968961;28;20041;-62
2021/09/20 06:54:54;;;;;;;4.07;2.50;;;;;;;12.37;100.00;96763.19;5012715;28;20345;-62
2021/09/20 06:57:40;;;;;;;3.95;2.50;;;;;;;12.36;100.00;96772.63;4992174;28;20041;-63
2021/09/20 07:00:28;;;;;;;4.57;2.28;;;;;;;12.10;100.00;96773.50;5009020;28;20053;-63
2021/09/20 07:03:13;;;;;;;4.03;2.88;;;;;;;11.94;100.00;96769.03;4999850;28;20111;-61
2021/09/20 07:05:59;;;;;;;5.50;3.30;;;;;;;12.01;100.00;96773.78;5006492;28;20046;-61
2021/09/20 07:08:45;;;;;;;8.52;4.50;;;;;;;12.10;100.00;96768.81;5003875;28;20572;-62
2021/09/20 07:11:31;;;;;;;8.88;4.43;;;;;;;11.93;100.00;96775.66;4984188;28;20092;-63
2021/09/20 07:14:16;;;;;;;5.32;3.72;;;;;;;12.09;100.00;96769.97;4992785;28;20565;-62
2021/09/20 07:17:03;;;;;;;8.88;4.72;;;;;;;12.53;100.00;96769.28;5001200;28;20557;-62
2021/09/20 07:19:48;;;;;;;5.43;3.28;;;;;;;12.94;100.00;96780.22;4999691;28;20089;-63
2021/09/20 07:22:34;;;;;;;5.32;3.03;;;;;;;12.85;100.00;96773.47;5005366;28;20132;-63
2021/09/20 07:25:20;;;;;;;4.32;2.95;;;;;;;12.66;100.00;96771.72;4988943;28;20475;-62
2021/09/20 07:28:06;;;;;;;6.20;2.90;;;;;;;12.76;100.00;96782.03;5000346;28;20038;-62
2021/09/20 07:30:51;;;;;;;4.85;3.20;;;;;;;12.93;100.00;96778.66;5002257;28;20120;-63
2021/09/20 07:33:37;;;;;;;7.55;3.40;;;;;;;13.26;100.00;96779.69;5006867;28;20038;-65
2021/09/20 07:36:23;;;;;;;3.83;2.63;;;;;;;13.41;100.00;96779.81;5010411;28;20465;-63
2021/09/20 07:39:09;;;;;;;3.30;2.35;;;;;;;13.75;100.00;96781.19;5004770;28;20179;-62
2021/09/20 07:41:54;;;;;;;2.97;2.17;;;;;;;13.93;100.00;96778.50;5007255;28;20060;-61
2021/09/20 07:44:40;;;;;;;4.10;2.70;;;;;;;13.87;100.00;96793.84;4989943;28;20042;-62
2021/09/20 07:47:26;;;;;;;3.38;2.40;;;;;;;13.99;100.00;96795.47;4988374;28;20057;-61
2021/09/20 07:50:14;;;;;;;6.05;1.65;;;;;;;14.26;100.00;96790.47;4974398;28;20049;-62
2021/09/20 07:53:00;;;;;;;3.50;2.17;;;;;;;14.23;99.04;96795.97;5003400;28;20108;-62
2021/09/20 07:55:47;;;;;;;3.58;2.00;;;;;;;14.06;99.86;96798.25;5006854;28;20072;-61
2021/09/20 07:58:33;;;;;;;3.22;1.60;;;;;;;14.15;99.59;96801.44;5004287;28;20129;-61
2021/09/20 08:01:19;;;;;;;2.15;1.60;;;;;;;14.04;99.15;96797.06;4994302;28;20045;-61
2021/09/20 08:04:05;;;;;;;2.42;1.80;;;;;;;13.85;99.63;96796.19;4997720;28;20037;-61
2021/09/20 08:06:50;;;;;;;2.20;1.20;;;;;;;13.13;100.00;96795.69;5003136;28;20136;-60
2021/09/20 08:09:36;;;;;;;2.00;1.27;;;;;;;13.53;100.00;96793.25;5000658;28;20046;-60
2021/09/20 08:12:22;;;;;;;3.35;1.30;;;;;;;13.72;100.00;96805.94;4995520;28;20576;-60
2021/09/20 08:15:08;;;;;;;2.15;1.30;;;;;;;13.74;100.00;96798.88;5005017;28;20646;-61
2021/09/20 08:17:55;;;;;;;2.90;1.85;;;;;;;13.35;100.00;96813.19;5010071;28;20053;-61
2021/09/20 08:20:42;;;;;;;3.25;1.85;;;;;;;13.69;100.00;96802.00;5002265;28;20049;-60
2021/09/20 08:23:28;;;;;;;4.10;1.60;;;;;;;14.06;100.00;96800.19;5013226;28;20042;-60
2021/09/20 08:26:14;;;;;;;8.57;3.10;;;;;;;13.36;100.00;96809.25;5009010;28;20604;-60
2021/09/20 08:29:00;;;;;;;2.92;2.03;;;;;;;12.77;100.00;96816.59;5003909;28;20101;-60
2021/09/20 08:31:46;;;;;;;3.17;2.03;;;;;;;12.89;100.00;96816.31;5004469;28;20034;-60
2021/09/20 08:34:31;;;;;;;3.30;2.00;;;;;;;13.25;100.00;96827.59;4993322;28;20042;-61
2021/09/20 08:37:17;;;;;;;3.55;2.00;;;;;;;12.99;100.00;96829.34;4990373;28;20049;-59
2021/09/20 08:40:06;;;;;;;3.92;2.00;;;;;;;12.80;100.00;96829.56;5001228;28;20088;-61
2021/09/20 08:42:52;;;;;;;6.47;2.67;;;;;;;12.96;100.00;96830.13;5015963;28;20057;-60
2021/09/20 08:45:37;;;;;;;3.70;2.35;;;;;;;13.20;100.00;96826.00;4975758;28;20418;-60
2021/09/20 08:48:23;;;;;;;3.63;2.22;;;;;;;13.14;100.00;96830.28;4977011;28;20167;-60
2021/09/20 08:51:10;;;;;;;2.83;1.90;;;;;;;13.42;100.00;96831.69;4991201;28;20057;-62
2021/09/20 08:53:56;;;;;;;5.70;1.80;;;;;;;13.20;100.00;96839.75;4992039;28;20176;-59
2021/09/20 08:56:42;;;;;;;3.70;2.13;;;;;;;12.70;100.00;96847.53;4991697;23;20053;-61
2021/09/20 08:59:28;;;;;;;4.13;2.40;;;;;;;12.41;100.00;96841.72;5003535;28;20056;-62
2021/09/20 09:02:16;;;;;;;3.97;2.25;;;;;;;12.47;100.00;96842.19;4984668;28;20048;-61
2021/09/20 09:05:20;;;;;;;3.63;2.22;;;;;;;12.52;100.00;96849.31;4992077;28;20034;-60
2021/09/20 09:08:07;;;;;;;4.70;2.67;;;;;;;12.35;100.00;96845.19;4993513;28;20045;-60
2021/09/20 09:11:04;;;;;;;3.58;2.42;;;;;;;12.46;100.00;96850.78;4997023;28;20042;-60
2021/09/20 09:13:50;;;;;;;2.95;2.20;;;;;;;12.41;100.00;96844.47;4993632;28;20149;-59
2021/09/20 09:16:37;;;;;;;3.58;2.20;;;;;;;12.46;100.00;96846.13;4991506;28;20082;-58
2021/09/20 09:19:23;;;;;;;4.07;1.80;;;;;;;12.70;100.00;96844.00;4987537;28;20491;-61
2021/09/20 09:22:08;;;;;;;2.50;1.92;;;;;;;12.28;100.00;96848.66;4989002;28;20556;-60
2021/09/20 09:24:57;;;;;;;3.33;2.20;;;;;;;12.26;100.00;96852.91;4995613;28;20434;-62
2021/09/20 09:27:44;;;;;;;2.90;2.08;;;;;;;12.26;100.00;96842.72;4996400;28;20046;-63
2021/09/20 09:30:39;;;;;;;3.50;2.25;;;;;;;12.40;100.00;96845.63;4993980;28;20046;-59
2021/09/20 09:33:38;;;;;;;2.63;2.10;;;;;;;12.44;100.00;96845.69;4989614;28;20812;-60
2021/09/20 09:36:30;;;;;;;6.63;2.10;;;;;;;12.37;100.00;96846.41;4983987;28;20050;-60
2021/09/20 09:39:27;;;;;;;3.33;1.85;;;;;;;12.66;100.00;96849.47;4972263;28;20546;-59
2021/09/20 09:42:28;;;;;;;4.60;1.70;;;;;;;12.76;100.00;96857.00;4985292;28;20038;-60
2021/09/20 09:45:18;;;;;;;3.28;2.10;;;;;;;12.89;100.00;96848.50;4981130;28;20053;-59
2021/09/20 09:48:10;;;;;;;3.70;1.88;;;;;;;12.90;100.00;96853.63;4990140;28;20042;-60
2021/09/20 09:50:59;;;;;;;2.58;1.65;;;;;;;13.16;100.00;96852.69;4988786;28;20466;-62
2021/09/20 09:53:47;;;;;;;3.97;1.60;;;;;;;13.10;100.00;96850.66;4992489;28;20049;-62
2021/09/20 09:56:32;;;;;;;5.20;1.90;;;;;;;13.24;100.00;96861.00;4986166;28;20041;-59
2021/09/20 09:59:26;;;;;;;2.95;1.65;;;;;;;13.05;100.00;96848.25;4980923;28;20394;-59
2021/09/20 10:02:26;;;;;;;3.40;2.05;;;;;;;13.36;100.00;96850.53;4986918;28;20052;-61
2021/09/20 10:05:14;;;;;;;3.67;2.30;;;;;;;13.03;100.00;96845.09;4985897;28;20060;-57
2021/09/20 10:08:10;;;;;;;3.25;2.38;;;;;;;13.64;100.00;96842.84;4993066;28;20038;-61
2021/09/20 10:10:56;;;;;;;3.72;2.13;;;;;;;13.66;100.00;96837.75;4995543;28;20045;-60
2021/09/20 10:13:42;;;;;;;2.50;1.67;;;;;;;14.28;100.00;96843.19;4981776;28;20061;-62
2021/09/20 10:16:31;;;;;;;3.67;2.10;;;;;;;14.58;100.00;96841.34;4992714;28;20129;-63
2021/09/20 10:19:16;;;;;;;2.83;1.60;;;;;;;14.32;100.00;96834.94;4992647;28;20061;-59
2021/09/20 10:22:02;;;;;;;3.72;2.00;;;;;;;13.37;100.00;96848.56;4996949;28;20053;-63
2021/09/20 10:24:50;;;;;;;3.97;1.95;;;;;;;13.72;100.00;96834.25;4999870;28;20046;-61
2021/09/20 10:27:37;;;;;;;3.15;1.73;;;;;;;13.82;100.00;96841.00;4983244;28;20046;-62
2021/09/20 10:30:24;;;;;;;4.82;2.00;;;;;;;14.20;100.00;96841.59;4987865;28;20570;-62
2021/09/20 10:33:10;;;;;;;3.45;2.10;;;;;;;14.12;100.00;96840.00;4984871;28;20478;-62
2021/09/20 10:35:56;;;;;;;3.70;2.15;;;;;;;14.41;100.00;96834.59;4992492;28;20045;-61
2021/09/20 10:38:51;;;;;;;4.53;2.30;;;;;;;13.80;100.00;96834.31;4989361;28;20041;-59
2021/09/20 10:41:37;;;;;;;3.28;2.17;;;;;;;13.77;100.00;96836.66;4975181;28;20734;-60
2021/09/20 10:44:39;;;;;;;5.18;2.60;;;;;;;14.02;100.00;96830.47;4990439;28;20918;-60
2021/09/20 10:47:41;;;;;;;3.90;3.00;;;;;;;13.71;100.00;96837.41;4984484;28;20327;-60
2021/09/20 10:50:44;;;;;;;4.35;2.20;;;;;;;14.30;100.00;96835.34;4991277;28;20050;-61
2021/09/20 10:53:32;;;;;;;2.88;2.22;;;;;;;13.84;100.00;96830.38;4997891;28;20045;-60
2021/09/20 10:56:21;;;;;;;5.22;2.50;;;;;;;14.06;100.00;96828.56;4981323;28;20048;-62
2021/09/20 10:59:08;;;;;;;3.93;2.53;;;;;;;13.98;100.00;96824.19;5014170;28;20744;-61
2021/09/20 11:01:57;;;;;;;2.70;2.20;;;;;;;14.38;100.00;96827.88;4988832;28;20054;-62
2021/09/20 11:04:44;;;;;;;3.13;2.20;;;;;;;14.38;100.00;96829.84;4991257;28;20052;-62
2021/09/20 11:07:44;;;;;;;5.38;3.80;;;;;;;14.14;100.00;96829.38;4998897;28;20046;-62
2021/09/20 11:10:31;;;;;;;3.13;2.40;;;;;;;15.00;97.54;96826.06;4996978;28;20046;-60
2021/09/20 11:13:17;;;;;;;3.15;2.08;;;;;;;16.10;91.13;96826.34;4973736;28;20120;-61
2021/09/20 11:16:03;;;;;;;3.10;2.33;;;;;;;15.95;88.50;96820.88;4990349;28;20509;-61
2021/09/20 11:18:48;;;;;;;3.45;2.40;;;;;;;15.60;89.34;96819.75;5000975;28;20691;-62
2021/09/20 11:21:34;;;;;;;3.40;2.63;;;;;;;15.15;94.02;96819.38;4998896;28;20045;-62
2021/09/20 11:24:20;;;;;;;4.22;2.38;;;;;;;15.81;91.03;96823.66;4993961;28;20383;-61
2021/09/20 11:27:32;;;;;;;3.88;2.25;;;;;;;16.08;84.32;96817.69;4992109;28;20048;-62
2021/09/20 11:30:28;;;;;;;2.45;1.85;;;;;;;16.90;82.75;96820.06;4987807;28;20104;-61
2021/09/20 11:33:13;;;;;;;4.10;1.73;;;;;;;17.94;78.81;96813.66;4988498;28;20406;-61
2021/09/20 11:35:59;;;;;;;3.20;1.75;;;;;;;18.89;73.32;96808.53;4997508;28;20144;-60
2021/09/20 11:38:45;;;;;;;2.83;1.70;;;;;;;19.73;68.35;96819.84;4997018;28;20678;-61
2021/09/20 11:41:31;;;;;;;2.72;1.70;;;;;;;20.01;65.58;96811.00;4999478;28;20038;-60
2021/09/20 11:44:26;;;;;;;3.80;2.05;;;;;;;20.79;61.89;96813.38;4990527;28;20054;-60
2021/09/20 11:47:11;;;;;;;2.97;1.50;;;;;;;21.56;58.49;96816.00;4989995;28;20050;-63
2021/09/20 11:50:07;;;;;;;3.50;1.52;;;;;;;21.11;57.57;96811.09;4997532;28;20049;-61
2021/09/20 11:52:55;;;;;;;3.33;1.75;;;;;;;19.80;64.19;96811.41;4996886;28;20066;-63
2021/09/20 11:55:43;;;;;;;3.63;1.60;;;;;;;19.09;63.01;96817.72;5014245;28;20049;-62
2021/09/20 11:58:29;;;;;;;4.68;1.67;;;;;;;19.35;63.83;96820.09;5005176;28;20659;-61
2021/09/20 12:01:20;;;;;;;2.95;1.63;;;;;;;19.21;64.00;96813.59;4991308;28;20141;-60
2021/09/20 12:04:06;;;;;;;4.03;1.75;;;;;;;19.55;62.29;96812.59;4987191;28;20048;-61
2021/09/20 12:06:52;;;;;;;2.70;1.90;;;;;;;18.64;66.16;96812.41;4983127;28;20058;-61
2021/09/20 12:09:37;;;;;;;2.92;1.30;;;;;;;18.41;67.41;96804.00;4981149;28;20072;-62
2021/09/20 12:12:31;;;;;;;3.35;1.77;;;;;;;17.98;71.92;96810.06;4969075;28;20137;-61
2021/09/20 12:15:20;;;;;;;3.00;1.70;;;;;;;16.65;78.75;96813.88;4961725;28;20676;-61
2021/09/20 12:18:07;;;;;;;4.80;2.10;;;;;;;16.34;78.18;96813.66;4968988;28;20046;-61
2021/09/20 12:20:56;;;;;;;3.45;1.98;;;;;;;16.38;81.04;96815.19;4994358;28;20049;-60
2021/09/20 12:23:49;;;;;;;4.38;2.42;;;;;;;15.61;84.79;96820.53;4986466;28;20049;-60
2021/09/20 12:26:36;;;;;;;6.55;2.78;;;;;;;15.86;83.05;96818.56;4993221;28;20045;-60
2021/09/20 12:29:22;;;;;;;3.30;2.22;;;;;;;15.72;82.74;96821.31;4979761;28;20077;-59
2021/09/20 12:32:08;;;;;;;4.00;2.30;;;;;;;15.80;80.56;96822.91;4971347;28;20042;-59
2021/09/20 12:34:55;;;;;;;4.63;2.55;;;;;;;15.68;83.81;96828.81;4981588;28;20046;-60
2021/09/20 12:37:41;;;;;;;3.72;2.45;;;;;;;15.70;82.78;96822.88;4995720;28;20129;-61
2021/09/20 12:40:26;;;;;;;3.10;2.38;;;;;;;15.78;80.85;96825.28;4978956;28;20259;-61
2021/09/20 12:43:21;;;;;;;4.18;2.90;;;;;;;15.60;81.84;96830.78;4988281;28;20145;-61
2021/09/20 12:46:16;;;;;;;3.42;2.30;;;;;;;15.89;80.36;96829.97;4972975;28;20045;-62
2021/09/20 12:49:03;;;;;;;5.80;3.90;;;;;;;16.51;78.51;96834.09;4991121;28;20153;-61
2021/09/20 12:51:49;;;;;;;4.45;2.10;;;;;;;16.75;73.79;96833.19;4987497;28;20359;-63
2021/09/20 12:54:35;;;;;;;3.83;2.25;;;;;;;16.99;73.94;96834.22;4972942;28;20045;-60
2021/09/20 12:57:26;;;;;;;3.40;1.98;;;;;;;17.16;73.35;96826.19;4981019;28;20037;-63
2021/09/20 13:00:12;;;;;;;3.72;2.00;;;;;;;17.38;74.31;96835.13;4985524;28;20534;-60